createdAt,value
2019-05-05T00:02:24.974Z,59.94
2019-05-05T00:05:15.440Z,60.12
2019-05-05T00:07:47.475Z,60.10
2019-05-05T00:10:22.934Z,60.33
2019-05-05T00:12:56.530Z,60.41
2019-05-05T00:15:34.386Z,60.32
2019-05-05T00:18:05.867Z,60.62
2019-05-05T00:20:38.243Z,61.08
2019-05-05T00:23:09.475Z,61.40
2019-05-05T00:25:40.825Z,61.60
2019-05-05T00:28:14.204Z,61.96
2019-05-05T00:30:45.570Z,62.09
2019-05-05T00:33:17.001Z,62.09
2019-05-05T00:35:48.449Z,62.04
2019-05-05T00:38:19.769Z,62.20
2019-05-05T00:40:51.076Z,62.32
2019-05-05T00:43:22.423Z,62.54
2019-05-05T00:45:55.927Z,62.64
2019-05-05T00:48:30.085Z,62.62
2019-05-05T00:51:01.477Z,62.63
2019-05-05T00:53:34.316Z,62.65
2019-05-05T00:56:05.903Z,62.61
2019-05-05T00:58:38.897Z,62.83
2019-05-05T01:01:14.523Z,62.98
2019-05-05T01:03:45.856Z,63.00
2019-05-05T01:06:30.794Z,63.14
2019-05-05T01:09:04.194Z,63.23
2019-05-05T01:11:36.799Z,63.24
2019-05-05T01:14:08.105Z,63.43
2019-05-05T01:16:39.674Z,63.57
2019-05-05T01:19:11.166Z,63.68
2019-05-05T01:21:42.527Z,63.75
2019-05-05T01:24:14.376Z,63.81
2019-05-05T01:26:46.848Z,63.97
2019-05-05T01:29:18.170Z,64.04
2019-05-05T01:31:49.588Z,64.24
2019-05-05T01:34:34.956Z,64.19
2019-05-05T01:37:08.052Z,64.44
2019-05-05T01:39:47.137Z,64.57
2019-05-05T01:42:18.592Z,64.48
2019-05-05T01:44:49.969Z,64.63
2019-05-05T01:47:21.552Z,65.14
2019-05-05T01:49:54.462Z,65.06
2019-05-05T01:52:26.225Z,65.08
2019-05-05T01:54:57.552Z,65.10
2019-05-05T01:57:29.110Z,64.91
2019-05-05T02:00:00.715Z,64.75
2019-05-05T02:02:34.156Z,64.58
2019-05-05T02:05:06.538Z,64.51
2019-05-05T02:07:38.011Z,64.41
2019-05-05T02:10:09.828Z,64.32
2019-05-05T02:12:41.202Z,64.58
2019-05-05T02:15:14.721Z,64.30
2019-05-05T02:17:45.765Z,64.28
2019-05-05T02:20:41.733Z,64.12
2019-05-05T02:23:15.170Z,64.04
2019-05-05T02:25:47.067Z,64.30
2019-05-05T02:28:18.463Z,64.55
2019-05-05T02:31:09.644Z,64.61
2019-05-05T02:33:41.219Z,65.09
2019-05-05T02:36:12.545Z,65.30
2019-05-05T02:38:46.265Z,65.39
2019-05-05T02:41:18.259Z,65.24
2019-05-05T02:43:50.021Z,65.37
2019-05-05T02:46:25.357Z,65.14
2019-05-05T02:48:58.511Z,65.03
2019-05-05T02:51:31.465Z,65.02
2019-05-05T02:54:04.523Z,65.02
2019-05-05T02:56:39.763Z,64.61
2019-05-05T02:59:14.709Z,64.50
2019-05-05T03:01:50.602Z,64.14
2019-05-05T03:04:24.439Z,64.21
2019-05-05T03:06:56.931Z,64.20
2019-05-05T03:09:31.463Z,64.19
2019-05-05T03:12:04.915Z,64.28
2019-05-05T03:14:37.616Z,63.99
2019-05-05T03:17:14.506Z,63.48
2019-05-05T03:19:46.288Z,63.62
2019-05-05T03:22:18.424Z,63.49
2019-05-05T03:24:50.359Z,63.69
2019-05-05T03:27:23.713Z,63.71
2019-05-05T03:29:55.460Z,63.84
2019-05-05T03:32:27.692Z,63.99
2019-05-05T03:34:59.355Z,63.73
2019-05-05T03:37:30.921Z,63.72
2019-05-05T03:40:04.336Z,63.84
2019-05-05T03:42:37.513Z,63.70
2019-05-05T03:45:27.231Z,63.96
2019-05-05T03:47:58.859Z,63.99
2019-05-05T03:50:30.317Z,63.87
2019-05-05T03:53:02.477Z,63.82
2019-05-05T03:55:34.854Z,64.09
2019-05-05T03:58:06.415Z,64.00
2019-05-05T04:00:46.663Z,63.85
2019-05-05T04:03:18.111Z,63.72
2019-05-05T04:05:53.816Z,63.64
2019-05-05T04:08:25.717Z,63.74
2019-05-05T04:10:57.224Z,63.67
2019-05-05T04:13:29.423Z,63.55
2019-05-05T04:16:08.067Z,63.49
2019-05-05T04:18:54.251Z,63.63
2019-05-05T04:21:33.128Z,63.38
2019-05-05T04:23:58.713Z,63.13
2019-05-05T04:26:30.068Z,62.86
2019-05-05T04:29:05.329Z,62.64
2019-05-05T04:31:35.757Z,62.28
2019-05-05T04:34:07.164Z,61.75
2019-05-05T04:36:38.563Z,61.38
2019-05-05T04:39:09.827Z,61.11
2019-05-05T04:41:41.191Z,60.65
2019-05-05T04:44:14.441Z,60.21
2019-05-05T04:46:47.171Z,60.20
2019-05-05T04:49:20.212Z,60.13
2019-05-05T04:51:59.222Z,59.59
2019-05-05T04:54:35.168Z,59.46
2019-05-05T04:57:06.645Z,59.10
2019-05-05T04:59:38.031Z,58.10
2019-05-05T05:02:14.407Z,56.34
2019-05-05T05:04:47.429Z,56.77
2019-05-05T05:07:19.287Z,56.99
2019-05-05T05:09:50.628Z,55.81
2019-05-05T05:12:23.750Z,52.53
2019-05-05T05:14:55.222Z,53.00
2019-05-05T05:17:28.418Z,53.12
2019-05-05T05:19:59.617Z,53.18
2019-05-05T05:22:30.980Z,53.12
2019-05-05T05:25:04.281Z,52.42
2019-05-05T05:27:35.370Z,51.79
2019-05-05T05:30:07.765Z,50.75
2019-05-05T05:32:39.870Z,49.63
2019-05-05T05:35:14.097Z,49.88
2019-05-05T05:37:46.697Z,49.29
2019-05-05T05:40:20.243Z,49.50
2019-05-05T05:42:51.680Z,49.18
2019-05-05T05:45:27.350Z,48.25
2019-05-05T05:48:15.744Z,49.15
2019-05-05T05:50:48.807Z,49.80
2019-05-05T05:53:20.773Z,50.01
2019-05-05T05:55:53.779Z,50.29
2019-05-05T05:58:25.531Z,50.45
2019-05-05T06:00:57.773Z,50.76
2019-05-05T06:03:29.183Z,51.51
2019-05-05T06:06:00.662Z,51.98
2019-05-05T06:08:34.116Z,52.61
2019-05-05T06:11:06.096Z,52.93
2019-05-05T06:13:37.473Z,53.26
2019-05-05T06:16:08.828Z,52.58
2019-05-05T06:18:40.129Z,52.11
2019-05-05T06:21:13.364Z,52.65
2019-05-05T06:23:44.485Z,52.11
2019-05-05T06:26:15.689Z,51.92
2019-05-05T06:28:47.075Z,51.37
2019-05-05T06:31:18.556Z,50.87
2019-05-05T06:33:49.897Z,49.70
2019-05-05T06:36:23.328Z,49.60
2019-05-05T06:38:55.263Z,49.61
2019-05-05T06:41:31.104Z,49.38
2019-05-05T06:44:14.194Z,48.95
2019-05-05T06:46:59.237Z,49.29
2019-05-05T06:49:31.321Z,48.63
2019-05-05T06:52:04.057Z,48.80
2019-05-05T06:54:35.716Z,48.38
2019-05-05T06:57:07.349Z,48.53
2019-05-05T06:59:38.701Z,48.38
2019-05-05T07:02:10.030Z,47.99
2019-05-05T07:04:41.370Z,47.62
2019-05-05T07:07:14.619Z,47.33
2019-05-05T07:09:47.064Z,46.68
2019-05-05T07:12:18.384Z,46.78
2019-05-05T07:14:49.823Z,46.25
2019-05-05T07:17:21.184Z,46.08
2019-05-05T07:19:54.355Z,45.88
2019-05-05T07:22:27.228Z,45.82
2019-05-05T07:24:58.620Z,44.76
2019-05-05T07:27:30.026Z,44.71
2019-05-05T07:30:01.426Z,44.05
2019-05-05T07:32:33.807Z,43.70
2019-05-05T07:35:07.221Z,43.04
2019-05-05T07:37:38.633Z,42.95
2019-05-05T07:40:10.211Z,43.38
2019-05-05T07:42:41.623Z,42.86
2019-05-05T07:45:22.625Z,42.33
2019-05-05T07:47:47.603Z,41.81
2019-05-05T07:50:31.674Z,41.32
2019-05-05T07:52:54.511Z,41.27
2019-05-05T07:55:25.661Z,41.02
2019-05-05T07:57:57.291Z,41.11
2019-05-05T08:00:29.289Z,41.30
2019-05-05T08:03:03.748Z,40.93
2019-05-05T08:05:34.916Z,40.90
2019-05-05T08:08:06.438Z,40.94
2019-05-05T08:10:38.031Z,40.61
2019-05-05T08:13:10.494Z,40.62
2019-05-05T08:15:56.886Z,40.77
2019-05-05T08:18:34.656Z,40.53
2019-05-05T08:21:07.943Z,40.40
2019-05-05T08:23:46.891Z,40.58
2019-05-05T08:26:19.930Z,40.64
2019-05-05T08:28:53.984Z,40.14
2019-05-05T08:31:30.112Z,39.97
2019-05-05T08:34:03.338Z,39.68
2019-05-05T08:36:34.570Z,39.67
2019-05-05T08:39:07.015Z,39.97
2019-05-05T08:41:38.823Z,39.82
2019-05-05T08:44:10.213Z,39.74
2019-05-05T08:46:41.724Z,39.42
2019-05-05T08:49:13.708Z,39.43
2019-05-05T08:51:45.130Z,39.18
2019-05-05T08:54:16.448Z,39.58
2019-05-05T08:56:47.842Z,38.97
2019-05-05T08:59:19.165Z,38.60
2019-05-05T09:01:50.617Z,37.42
2019-05-05T09:04:24.699Z,36.90
2019-05-05T09:06:56.280Z,36.03
2019-05-05T09:09:27.719Z,35.22
2019-05-05T09:11:59.057Z,34.21
2019-05-05T09:14:30.293Z,34.22
2019-05-05T09:17:01.661Z,35.47
2019-05-05T09:19:34.479Z,35.91
2019-05-05T09:22:08.730Z,35.70
2019-05-05T09:24:40.828Z,36.74
2019-05-05T09:27:14.306Z,36.95
2019-05-05T09:29:48.653Z,37.04
2019-05-05T09:32:20.116Z,36.42
2019-05-05T09:34:51.596Z,36.15
2019-05-05T09:37:24.668Z,35.38
2019-05-05T09:39:56.215Z,34.69
2019-05-05T09:42:28.764Z,35.14
2019-05-05T09:45:00.123Z,34.64
2019-05-05T09:47:31.411Z,34.93
2019-05-05T09:50:03.890Z,34.84
2019-05-05T09:52:35.852Z,34.65
2019-05-05T09:55:09.169Z,35.13
2019-05-05T09:57:40.671Z,35.10
2019-05-05T10:00:15.287Z,35.23
2019-05-05T10:02:46.912Z,35.60
2019-05-05T10:05:23.625Z,35.27
2019-05-05T10:07:56.935Z,35.20
2019-05-05T10:10:29.275Z,35.16
2019-05-05T10:13:00.763Z,34.74
2019-05-05T10:15:32.225Z,34.14
2019-05-05T10:18:04.885Z,33.84
2019-05-05T10:20:36.337Z,33.66
2019-05-05T10:23:07.906Z,33.42
2019-05-05T10:25:47.134Z,33.95
2019-05-05T10:28:18.658Z,34.19
2019-05-05T10:30:50.428Z,34.34
2019-05-05T10:33:22.006Z,33.74
2019-05-05T10:35:54.118Z,33.84
2019-05-05T10:38:25.795Z,34.16
2019-05-05T10:41:00.535Z,34.55
2019-05-05T10:43:34.231Z,34.91
2019-05-05T10:46:05.453Z,34.30
2019-05-05T10:48:36.813Z,34.03
2019-05-05T10:51:09.459Z,33.92
2019-05-05T10:53:41.158Z,33.94
2019-05-05T10:56:13.699Z,34.30
2019-05-05T10:58:45.481Z,33.93
2019-05-05T11:01:16.986Z,33.23
2019-05-05T11:03:48.730Z,33.80
2019-05-05T11:06:20.463Z,33.63
2019-05-05T11:08:53.884Z,33.45
2019-05-05T11:11:25.128Z,33.77
2019-05-05T11:13:56.953Z,34.60
2019-05-05T11:16:29.485Z,34.79
2019-05-05T11:19:04.339Z,34.56
2019-05-05T11:21:35.965Z,34.70
2019-05-05T11:24:07.348Z,35.09
2019-05-05T11:26:38.867Z,35.02
2019-05-05T11:29:10.081Z,35.25
2019-05-05T11:31:41.502Z,35.20
2019-05-05T11:34:15.092Z,35.50
2019-05-05T11:36:48.151Z,35.74
2019-05-05T11:39:19.854Z,35.94
2019-05-05T11:41:51.365Z,36.00
2019-05-05T11:44:24.330Z,35.80
2019-05-05T11:46:55.892Z,35.90
2019-05-05T11:49:27.397Z,35.86
2019-05-05T11:51:58.842Z,36.11
2019-05-05T11:54:30.487Z,35.68
2019-05-05T11:57:03.716Z,35.26
2019-05-05T11:59:35.151Z,34.56
2019-05-05T12:02:06.531Z,35.14
2019-05-05T12:04:37.965Z,35.48
2019-05-05T12:07:09.251Z,36.03
2019-05-05T12:09:44.280Z,36.41
2019-05-05T12:12:15.319Z,36.75
2019-05-05T12:14:47.412Z,37.02
2019-05-05T12:17:20.581Z,36.45
2019-05-05T12:19:53.987Z,36.44
2019-05-05T12:22:25.027Z,36.24
2019-05-05T12:24:56.621Z,35.75
2019-05-05T12:27:33.898Z,35.59
2019-05-05T12:30:07.791Z,35.80
2019-05-05T12:32:40.124Z,35.81
2019-05-05T12:35:11.652Z,36.27
2019-05-05T12:37:44.546Z,36.59
2019-05-05T12:40:16.022Z,36.79
2019-05-05T12:42:47.308Z,36.92
2019-05-05T12:45:20.638Z,36.37
2019-05-05T12:48:13.472Z,37.00
2019-05-05T12:50:46.235Z,36.79
2019-05-05T12:53:17.577Z,37.07
2019-05-05T12:55:49.084Z,37.24
2019-05-05T12:58:20.596Z,37.17
2019-05-05T13:00:59.936Z,37.21
2019-05-05T13:03:31.477Z,36.79
2019-05-05T13:06:04.094Z,36.41
2019-05-05T13:08:35.786Z,36.11
2019-05-05T13:11:07.288Z,35.18
2019-05-05T13:13:38.725Z,34.91
2019-05-05T13:16:10.340Z,35.27
2019-05-05T13:18:41.832Z,35.80
2019-05-05T13:21:26.995Z,34.82
2019-05-05T13:24:34.355Z,34.58
2019-05-05T13:27:09.970Z,34.58
2019-05-05T13:29:40.369Z,35.79
2019-05-05T13:32:14.060Z,36.24
2019-05-05T13:34:47.262Z,36.51
2019-05-05T13:37:20.175Z,36.82
2019-05-05T13:39:53.734Z,36.79
2019-05-05T13:42:25.017Z,36.50
2019-05-05T13:44:58.136Z,36.51
2019-05-05T13:47:30.628Z,36.52
2019-05-05T13:50:03.783Z,36.92
2019-05-05T13:52:35.278Z,37.12
2019-05-05T13:55:07.998Z,37.42
2019-05-05T13:57:39.454Z,37.56
2019-05-05T14:00:14.090Z,37.86
2019-05-05T14:02:45.870Z,37.95
2019-05-05T14:05:17.305Z,37.95
2019-05-05T14:07:48.903Z,37.54
2019-05-05T14:10:20.464Z,37.15
2019-05-05T14:12:52.298Z,36.94
2019-05-05T14:15:23.805Z,36.58
2019-05-05T14:17:55.319Z,35.72
2019-05-05T14:20:27.114Z,35.08
2019-05-05T14:22:58.990Z,34.63
2019-05-05T14:25:32.451Z,34.98
2019-05-05T14:28:04.019Z,35.02
2019-05-05T14:30:37.122Z,34.72
2019-05-05T14:33:10.418Z,33.68
2019-05-05T14:35:46.308Z,33.86
2019-05-05T14:38:35.720Z,33.62
2019-05-05T14:41:07.320Z,33.45
2019-05-05T14:43:38.872Z,33.35
2019-05-05T14:46:10.265Z,33.87
2019-05-05T14:48:43.957Z,33.74
2019-05-05T14:51:14.987Z,33.70
2019-05-05T14:53:46.656Z,33.06
2019-05-05T14:56:18.082Z,32.77
2019-05-05T14:58:49.420Z,32.84
2019-05-05T15:01:20.843Z,32.79
2019-05-05T15:03:53.588Z,32.80
2019-05-05T15:06:29.316Z,32.52
2019-05-05T15:09:17.686Z,32.18
2019-05-05T15:11:56.809Z,31.65
2019-05-05T15:14:28.218Z,30.38
2019-05-05T15:16:59.713Z,30.35
2019-05-05T15:19:31.148Z,31.01
2019-05-05T15:22:02.833Z,31.74
2019-05-05T15:24:34.232Z,32.37
2019-05-05T15:27:05.639Z,32.66
2019-05-05T15:29:37.103Z,33.14
2019-05-05T15:32:08.500Z,33.28
2019-05-05T15:34:39.911Z,33.40
2019-05-05T15:37:11.324Z,33.84
2019-05-05T15:39:44.159Z,33.82
2019-05-05T15:42:15.855Z,34.04
2019-05-05T15:44:47.435Z,34.03
2019-05-05T15:47:20.376Z,34.18
2019-05-05T15:49:53.354Z,34.26
2019-05-05T15:52:24.705Z,34.41
2019-05-05T15:54:56.299Z,34.68
2019-05-05T15:57:28.781Z,34.71
2019-05-05T16:00:00.427Z,34.68
2019-05-05T16:02:31.966Z,34.87
2019-05-05T16:05:04.622Z,35.20
2019-05-05T16:07:36.101Z,35.18
2019-05-05T16:10:11.077Z,35.38
2019-05-05T16:12:44.826Z,35.49
2019-05-05T16:15:18.298Z,35.59
2019-05-05T16:18:07.771Z,35.88
2019-05-05T16:20:54.524Z,35.93
2019-05-05T16:23:43.642Z,36.30
2019-05-05T16:26:15.313Z,36.63
2019-05-05T16:28:46.630Z,36.63
2019-05-05T16:31:18.036Z,37.09
2019-05-05T16:33:51.765Z,36.99
2019-05-05T16:36:24.339Z,37.51
2019-05-05T16:38:55.669Z,37.77
2019-05-05T16:41:27.253Z,37.83
2019-05-05T16:43:58.706Z,38.19
2019-05-05T16:46:30.382Z,38.49
2019-05-05T16:49:03.559Z,38.50
2019-05-05T16:51:40.178Z,38.36
2019-05-05T16:54:13.787Z,38.78
2019-05-05T16:56:45.333Z,39.06
2019-05-05T16:59:17.296Z,39.08
2019-05-05T17:01:48.850Z,39.13
2019-05-05T17:04:20.275Z,39.45
2019-05-05T17:06:51.691Z,39.60
2019-05-05T17:09:24.045Z,39.69
2019-05-05T17:12:11.026Z,39.81
2019-05-05T17:14:50.165Z,40.16
2019-05-05T17:17:25.871Z,39.68
2019-05-05T17:19:58.086Z,40.65
2019-05-05T17:22:31.200Z,40.86
2019-05-05T17:25:02.855Z,40.98
2019-05-05T17:27:47.084Z,41.14
2019-05-05T17:30:08.635Z,41.54
2019-05-05T17:32:40.043Z,41.55
2019-05-05T17:35:11.540Z,41.63
2019-05-05T17:37:44.258Z,41.94
2019-05-05T17:40:34.102Z,41.93
2019-05-05T17:43:23.950Z,42.19
2019-05-05T17:45:57.856Z,42.42
2019-05-05T17:48:39.820Z,42.80
2019-05-05T17:51:15.496Z,42.75
2019-05-05T17:53:49.685Z,42.92
2019-05-05T17:56:21.009Z,42.75
2019-05-05T17:58:53.821Z,42.72
2019-05-05T18:01:25.454Z,42.61
2019-05-05T18:03:56.912Z,42.79
2019-05-05T18:06:30.054Z,42.72
2019-05-05T18:09:05.872Z,42.83
2019-05-05T18:11:38.917Z,42.74
2019-05-05T18:14:14.529Z,42.83
2019-05-05T18:16:45.937Z,43.02
2019-05-05T18:19:17.575Z,43.19
2019-05-05T18:21:49.582Z,43.33
2019-05-05T18:24:21.177Z,43.57
2019-05-05T18:26:53.665Z,43.59
2019-05-05T18:29:25.283Z,43.63
2019-05-05T18:31:56.713Z,43.69
2019-05-05T18:34:28.242Z,43.82
2019-05-05T18:36:59.748Z,44.10
2019-05-05T18:39:31.293Z,44.06
2019-05-05T18:42:06.904Z,44.34
2019-05-05T18:44:39.872Z,44.51
2019-05-05T18:47:18.412Z,44.66
2019-05-05T18:49:50.370Z,44.70
2019-05-05T18:52:21.775Z,44.88
2019-05-05T18:54:54.498Z,45.06
2019-05-05T18:57:26.304Z,45.30
2019-05-05T18:59:57.775Z,45.37
2019-05-05T19:02:44.296Z,45.54
2019-05-05T19:05:23.724Z,45.67
2019-05-05T19:08:04.501Z,45.85
2019-05-05T19:10:35.935Z,46.08
2019-05-05T19:13:07.567Z,46.15
2019-05-05T19:15:39.448Z,46.32
2019-05-05T19:18:11.045Z,46.42
2019-05-05T19:20:44.543Z,46.86
2019-05-05T19:23:16.135Z,46.96
2019-05-05T19:25:47.613Z,47.23
2019-05-05T19:28:20.274Z,47.48
2019-05-05T19:30:52.115Z,47.48
2019-05-05T19:33:24.587Z,47.57
2019-05-05T19:35:56.323Z,48.26
2019-05-05T19:38:27.807Z,48.27
2019-05-05T19:40:59.543Z,48.15
2019-05-05T19:43:31.051Z,48.35
2019-05-05T19:46:03.141Z,48.50
2019-05-05T19:48:34.562Z,48.37
2019-05-05T19:51:07.568Z,48.38
2019-05-05T19:53:38.892Z,48.60
2019-05-05T19:56:10.401Z,48.89
2019-05-05T19:58:57.333Z,49.23
2019-05-05T20:01:15.006Z,49.15
2019-05-05T20:03:46.608Z,49.41
2019-05-05T20:06:17.962Z,49.53
2019-05-05T20:08:49.508Z,49.81
2019-05-05T20:11:21.039Z,50.00
2019-05-05T20:14:04.744Z,50.28
2019-05-05T20:16:27.305Z,51.06
2019-05-05T20:18:58.804Z,51.02
2019-05-05T20:21:30.532Z,51.33
2019-05-05T20:24:03.693Z,51.15
2019-05-05T20:26:47.483Z,51.16
2019-05-05T20:29:36.737Z,51.24
2019-05-05T20:32:06.961Z,51.42
2019-05-05T20:34:42.733Z,51.44
2019-05-05T20:37:18.798Z,52.42
2019-05-05T20:39:50.203Z,51.79
2019-05-05T20:42:21.653Z,51.93
2019-05-05T20:44:54.402Z,51.98
2019-05-05T20:47:26.199Z,52.72
2019-05-05T20:49:59.461Z,53.20
2019-05-05T20:52:30.901Z,52.52
2019-05-05T20:55:04.655Z,52.87
2019-05-05T20:57:35.611Z,52.86
2019-05-05T21:00:09.224Z,52.87
2019-05-05T21:02:43.590Z,52.93
2019-05-05T21:05:15.381Z,53.19
2019-05-05T21:07:47.039Z,53.26
2019-05-05T21:10:18.448Z,53.42
2019-05-05T21:12:49.970Z,53.65
2019-05-05T21:15:21.736Z,53.81
2019-05-05T21:17:54.376Z,53.87
2019-05-05T21:20:26.443Z,53.99
2019-05-05T21:23:03.660Z,54.16
2019-05-05T21:25:39.998Z,54.47
2019-05-05T21:28:17.917Z,54.73
2019-05-05T21:30:49.331Z,54.84
2019-05-05T21:33:20.715Z,55.22
2019-05-05T21:35:54.850Z,55.30
2019-05-05T21:38:25.512Z,55.61
2019-05-05T21:40:57.903Z,55.82
2019-05-05T21:43:29.265Z,55.92
2019-05-05T21:46:00.724Z,55.95
2019-05-05T21:48:33.957Z,56.04
2019-05-05T21:51:09.593Z,56.30
2019-05-05T21:53:42.684Z,56.29
2019-05-05T21:56:34.082Z,56.47
2019-05-05T21:59:05.319Z,56.41
2019-05-05T22:01:39.481Z,56.45
2019-05-05T22:04:12.561Z,56.76
2019-05-05T22:06:43.635Z,56.79
2019-05-05T22:09:15.257Z,56.72
2019-05-05T22:11:46.906Z,56.76
2019-05-05T22:14:18.512Z,56.73
2019-05-05T22:16:49.868Z,56.79
2019-05-05T22:19:23.999Z,56.74
2019-05-05T22:21:56.975Z,56.55
2019-05-05T22:24:28.573Z,56.53
2019-05-05T22:26:59.975Z,56.48
2019-05-05T22:29:31.679Z,56.54
2019-05-05T22:32:06.046Z,56.45
2019-05-05T22:34:36.875Z,56.42
2019-05-05T22:37:09.894Z,56.37
2019-05-05T22:39:41.398Z,56.35
2019-05-05T22:42:13.710Z,56.10
2019-05-05T22:44:45.839Z,55.80
2019-05-05T22:47:17.252Z,55.40
2019-05-05T22:49:48.666Z,55.14
2019-05-05T22:52:20.074Z,54.86
2019-05-05T22:54:51.510Z,54.86
2019-05-05T22:57:24.726Z,55.10
2019-05-05T22:59:56.254Z,55.45
2019-05-05T23:02:29.216Z,55.68
2019-05-05T23:05:05.320Z,56.01
2019-05-05T23:07:36.694Z,56.36
2019-05-05T23:10:08.627Z,56.50
2019-05-05T23:12:40.078Z,56.56
2019-05-05T23:15:14.410Z,56.84
2019-05-05T23:17:46.769Z,56.87
2019-05-05T23:21:00.922Z,56.97
2019-05-05T23:23:50.482Z,57.08
2019-05-05T23:26:23.465Z,57.19
2019-05-05T23:28:54.987Z,57.29
2019-05-05T23:31:26.437Z,57.45
2019-05-05T23:33:58.939Z,57.82
2019-05-05T23:36:30.353Z,57.70
2019-05-05T23:39:05.770Z,57.68
2019-05-05T23:41:37.645Z,57.98
2019-05-05T23:44:08.954Z,57.78
2019-05-05T23:46:40.361Z,57.86
2019-05-05T23:49:13.741Z,57.80
2019-05-05T23:51:45.496Z,57.88
2019-05-05T23:54:17.309Z,57.71
2019-05-05T23:56:48.904Z,57.59
2019-05-05T23:59:20.234Z,57.59
